createdAt,value
2022-09-25T00:01:34.130Z,11.73
2022-09-25T00:04:36.969Z,11.74
2022-09-25T00:07:41.095Z,11.72
2022-09-25T00:10:46.147Z,11.64
2022-09-25T00:13:48.939Z,11.72
2022-09-25T00:16:51.817Z,11.66
2022-09-25T00:19:54.814Z,11.68
2022-09-25T00:23:02.491Z,11.54
2022-09-25T00:26:07.659Z,11.55
2022-09-25T00:29:15.346Z,11.61
2022-09-25T00:32:18.140Z,11.69
2022-09-25T00:35:21.020Z,11.72
2022-09-25T00:38:25.165Z,11.71
2022-09-25T00:41:34.412Z,11.68
2022-09-25T00:44:59.448Z,11.46
2022-09-25T00:48:07.044Z,11.31
2022-09-25T00:51:09.872Z,11.13
2022-09-25T00:54:17.493Z,11.00
2022-09-25T00:57:23.144Z,11.18
2022-09-25T01:00:26.261Z,11.38
2022-09-25T01:03:29.513Z,11.44
2022-09-25T01:06:33.469Z,11.33
2022-09-25T01:09:37.748Z,11.14
2022-09-25T01:12:43.445Z,11.16
2022-09-25T01:15:54.006Z,11.23
2022-09-25T01:19:12.148Z,11.35
2022-09-25T01:22:28.834Z,11.34
2022-09-25T01:25:52.231Z,11.02
2022-09-25T01:29:07.696Z,11.06
2022-09-25T01:32:19.341Z,10.93
2022-09-25T01:35:39.534Z,11.05
2022-09-25T01:38:48.053Z,11.07
2022-09-25T01:41:57.850Z,11.17
2022-09-25T01:45:05.978Z,11.19
2022-09-25T01:48:11.779Z,11.00
2022-09-25T01:51:17.604Z,11.19
2022-09-25T01:54:25.770Z,11.16
2022-09-25T01:57:36.116Z,11.03
2022-09-25T02:00:42.690Z,11.08
2022-09-25T02:03:50.056Z,11.12
2022-09-25T02:06:56.279Z,11.16
2022-09-25T02:10:04.266Z,11.17
2022-09-25T02:13:12.911Z,11.27
2022-09-25T02:16:20.787Z,11.24
2022-09-25T02:19:41.563Z,11.08
2022-09-25T02:22:45.202Z,11.11
2022-09-25T02:25:56.569Z,11.12
2022-09-25T02:29:00.630Z,11.17
2022-09-25T02:32:08.640Z,11.22
2022-09-25T02:35:11.519Z,11.24
2022-09-25T02:38:14.787Z,11.06
2022-09-25T02:41:24.200Z,11.17
2022-09-25T02:44:41.190Z,11.13
2022-09-25T02:47:58.767Z,11.19
2022-09-25T02:51:12.264Z,11.14
2022-09-25T02:54:22.620Z,11.05
2022-09-25T02:57:34.825Z,10.99
2022-09-25T03:00:39.984Z,10.62
2022-09-25T03:03:46.863Z,10.68
2022-09-25T03:06:49.675Z,10.57
2022-09-25T03:09:54.120Z,10.76
2022-09-25T03:12:57.009Z,10.67
2022-09-25T03:16:03.761Z,10.68
2022-09-25T03:19:08.532Z,10.60
2022-09-25T03:22:12.082Z,10.61
2022-09-25T03:25:16.166Z,10.67
2022-09-25T03:28:18.965Z,10.57
2022-09-25T03:31:22.124Z,10.49
2022-09-25T03:34:26.350Z,10.64
2022-09-25T03:37:30.022Z,10.75
2022-09-25T03:40:32.900Z,10.70
2022-09-25T03:43:36.542Z,10.82
2022-09-25T03:46:39.666Z,10.89
2022-09-25T03:49:43.867Z,10.85
2022-09-25T03:52:47.190Z,10.93
2022-09-25T03:55:50.077Z,10.94
2022-09-25T03:58:54.620Z,10.97
2022-09-25T04:01:57.400Z,10.79
2022-09-25T04:05:03.586Z,10.69
2022-09-25T04:08:06.805Z,10.64
2022-09-25T04:11:09.556Z,10.66
2022-09-25T04:14:12.602Z,10.68
2022-09-25T04:17:15.435Z,10.64
2022-09-25T04:20:20.732Z,10.58
2022-09-25T04:23:23.589Z,10.50
2022-09-25T04:26:26.397Z,10.64
2022-09-25T04:29:30.199Z,10.69
2022-09-25T04:32:50.614Z,10.66
2022-09-25T04:35:55.202Z,10.50
2022-09-25T04:38:58.029Z,10.50
2022-09-25T04:42:00.825Z,10.37
2022-09-25T04:45:04.244Z,10.36
2022-09-25T04:48:07.388Z,10.41
2022-09-25T04:51:11.581Z,10.47
2022-09-25T04:54:14.983Z,10.53
2022-09-25T04:57:38.788Z,10.52
2022-09-25T05:00:42.762Z,10.54
2022-09-25T05:03:48.324Z,10.21
2022-09-25T05:06:52.675Z,10.14
2022-09-25T05:09:55.469Z,10.23
2022-09-25T05:12:59.343Z,10.27
2022-09-25T05:16:02.715Z,10.19
2022-09-25T05:19:05.761Z,9.99
2022-09-25T05:22:09.903Z,10.11
2022-09-25T05:25:12.807Z,10.12
2022-09-25T05:28:15.584Z,10.16
2022-09-25T05:31:18.790Z,10.11
2022-09-25T05:34:21.517Z,10.10
2022-09-25T05:37:25.589Z,10.06
2022-09-25T05:40:28.815Z,10.22
2022-09-25T05:43:32.233Z,10.29
2022-09-25T05:46:34.994Z,10.36
2022-09-25T05:49:37.760Z,10.36
2022-09-25T05:52:42.988Z,10.35
2022-09-25T05:55:50.801Z,10.39
2022-09-25T05:58:54.206Z,10.21
2022-09-25T06:01:56.959Z,10.26
2022-09-25T06:04:59.746Z,10.28
2022-09-25T06:08:04.730Z,10.40
2022-09-25T06:11:11.370Z,10.43
2022-09-25T06:14:14.437Z,10.35
2022-09-25T06:17:17.178Z,10.42
2022-09-25T06:20:21.960Z,10.38
2022-09-25T06:23:26.119Z,10.27
2022-09-25T06:26:28.843Z,10.30
2022-09-25T06:29:31.743Z,10.28
2022-09-25T06:32:34.440Z,10.35
2022-09-25T06:35:38.059Z,10.42
2022-09-25T06:38:42.162Z,10.31
2022-09-25T06:41:44.888Z,10.30
2022-09-25T06:44:47.765Z,10.36
2022-09-25T06:47:50.946Z,10.48
2022-09-25T06:50:57.284Z,10.53
2022-09-25T06:54:01.515Z,10.57
2022-09-25T06:57:04.690Z,10.60
2022-09-25T07:00:08.631Z,10.71
2022-09-25T07:03:29.044Z,10.75
2022-09-25T07:06:34.563Z,10.82
2022-09-25T07:09:38.636Z,10.86
2022-09-25T07:12:41.666Z,10.87
2022-09-25T07:15:44.851Z,10.96
2022-09-25T07:18:48.053Z,10.97
2022-09-25T07:21:51.302Z,11.05
2022-09-25T07:24:55.417Z,11.12
2022-09-25T07:27:59.014Z,11.21
2022-09-25T07:31:11.700Z,11.33
2022-09-25T07:34:15.340Z,11.42
2022-09-25T07:37:18.219Z,11.49
2022-09-25T07:40:22.409Z,11.66
2022-09-25T07:43:25.242Z,11.78
2022-09-25T07:46:31.413Z,11.86
2022-09-25T07:49:35.025Z,11.99
2022-09-25T07:52:37.868Z,12.11
2022-09-25T07:55:42.129Z,12.12
2022-09-25T07:58:45.644Z,12.20
2022-09-25T08:01:53.493Z,12.34
2022-09-25T08:04:56.949Z,12.44
2022-09-25T08:07:59.682Z,12.52
2022-09-25T08:11:06.745Z,12.51
2022-09-25T08:14:09.745Z,12.53
2022-09-25T08:17:12.600Z,12.51
2022-09-25T08:20:15.638Z,12.68
2022-09-25T08:23:18.377Z,12.63
2022-09-25T08:26:24.124Z,12.88
2022-09-25T08:29:26.945Z,12.93
2022-09-25T08:32:32.838Z,13.01
2022-09-25T08:35:35.603Z,13.08
2022-09-25T08:38:38.566Z,13.27
2022-09-25T08:41:49.728Z,13.35
2022-09-25T08:45:21.481Z,13.42
2022-09-25T08:48:48.972Z,13.24
2022-09-25T08:51:55.086Z,13.25
2022-09-25T08:54:59.084Z,13.44
2022-09-25T08:58:03.247Z,13.69
2022-09-25T09:01:19.340Z,13.69
2022-09-25T09:04:28.287Z,13.86
2022-09-25T09:07:37.515Z,14.03
2022-09-25T09:10:45.217Z,14.05
2022-09-25T09:13:52.734Z,13.88
2022-09-25T09:17:01.119Z,13.90
2022-09-25T09:20:16.423Z,14.07
2022-09-25T09:23:24.976Z,14.17
2022-09-25T09:26:38.533Z,14.26
2022-09-25T09:29:59.365Z,14.28
2022-09-25T09:33:24.670Z,14.38
2022-09-25T09:36:38.771Z,14.24
2022-09-25T09:44:51.029Z,14.50
2022-09-25T09:48:06.397Z,14.56
2022-09-25T09:51:14.927Z,14.51
2022-09-25T09:54:23.472Z,14.69
2022-09-25T09:57:28.707Z,14.76
2022-09-25T10:00:32.490Z,14.86
2022-09-25T10:03:39.265Z,14.85
2022-09-25T10:06:48.402Z,15.09
2022-09-25T10:09:51.945Z,15.04
2022-09-25T10:12:56.135Z,15.15
2022-09-25T10:16:03.549Z,15.18
2022-09-25T10:19:11.968Z,15.25
2022-09-25T10:22:18.432Z,15.29
2022-09-25T10:25:37.426Z,15.31
2022-09-25T10:28:43.976Z,15.36
2022-09-25T10:31:47.564Z,15.40
2022-09-25T10:34:54.778Z,15.45
2022-09-25T10:38:01.750Z,15.46
2022-09-25T10:41:08.643Z,15.53
2022-09-25T10:44:23.563Z,15.63
2022-09-25T10:47:50.283Z,15.62
2022-09-25T10:51:07.833Z,15.69
2022-09-25T10:54:18.019Z,15.66
2022-09-25T10:57:34.322Z,15.88
2022-09-25T11:00:45.115Z,15.71
2022-09-25T11:03:54.136Z,15.87
2022-09-25T11:07:00.514Z,15.97
2022-09-25T11:10:09.657Z,15.98
2022-09-25T11:13:39.970Z,16.08
2022-09-25T11:16:50.242Z,16.20
2022-09-25T11:20:16.263Z,16.15
2022-09-25T11:23:30.183Z,16.23
2022-09-25T11:26:39.730Z,16.29
2022-09-25T11:30:16.079Z,16.33
2022-09-25T11:33:27.033Z,16.31
2022-09-25T11:36:35.188Z,16.36
2022-09-25T11:40:04.294Z,16.48
2022-09-25T11:43:12.468Z,16.67
2022-09-25T11:46:23.780Z,16.65
2022-09-25T11:49:31.354Z,16.58
2022-09-25T11:52:49.393Z,16.43
2022-09-25T11:56:05.397Z,16.37
2022-09-25T11:59:26.288Z,16.46
2022-09-25T12:02:40.966Z,16.40
2022-09-25T12:06:06.283Z,16.33
2022-09-25T12:09:23.323Z,16.34
2022-09-25T12:12:33.171Z,16.32
2022-09-25T12:15:57.339Z,16.35
2022-09-25T12:19:10.874Z,16.71
2022-09-25T12:22:22.917Z,16.74
2022-09-25T12:25:38.453Z,16.67
2022-09-25T12:28:52.660Z,16.74
2022-09-25T12:32:08.055Z,16.69
2022-09-25T12:35:27.053Z,16.65
2022-09-25T12:38:39.648Z,16.66
2022-09-25T12:41:48.187Z,16.55
2022-09-25T12:44:56.913Z,16.58
2022-09-25T12:48:10.878Z,16.57
2022-09-25T12:51:18.209Z,16.50
2022-09-25T12:54:28.234Z,16.43
2022-09-25T12:57:37.212Z,16.43
2022-09-25T13:00:44.321Z,16.39
2022-09-25T13:03:56.656Z,16.33
2022-09-25T13:07:09.628Z,16.30
2022-09-25T13:10:25.290Z,16.34
2022-09-25T13:13:31.043Z,16.03
2022-09-25T13:16:35.461Z,15.90
2022-09-25T13:19:40.041Z,15.67
2022-09-25T13:22:42.981Z,15.55
2022-09-25T13:25:48.201Z,15.52
2022-09-25T13:28:56.571Z,15.57
2022-09-25T13:32:06.198Z,15.61
2022-09-25T13:35:19.925Z,15.66
2022-09-25T13:38:37.026Z,15.67
2022-09-25T13:41:50.188Z,15.68
2022-09-25T13:45:11.744Z,15.72
2022-09-25T13:48:35.592Z,15.81
2022-09-25T13:51:45.559Z,15.84
2022-09-25T13:54:48.380Z,15.89
2022-09-25T13:58:03.618Z,15.89
2022-09-25T14:01:21.798Z,15.91
2022-09-25T14:04:34.999Z,15.94
2022-09-25T14:07:41.693Z,15.93
2022-09-25T14:10:45.490Z,15.98
2022-09-25T14:13:51.322Z,15.95
2022-09-25T14:16:58.459Z,15.84
2022-09-25T14:20:04.696Z,15.69
2022-09-25T14:23:14.295Z,15.68
2022-09-25T14:26:21.567Z,15.62
2022-09-25T14:33:36.347Z,15.56
2022-09-25T14:36:50.357Z,15.58
2022-09-25T14:40:02.855Z,15.57
2022-09-25T14:46:35.980Z,15.57
2022-09-25T14:49:43.427Z,15.61
2022-09-25T14:52:47.399Z,15.53
2022-09-25T14:55:54.158Z,15.56
2022-09-25T14:59:02.135Z,15.52
2022-09-25T15:02:05.552Z,15.52
2022-09-25T15:05:20.111Z,15.52
2022-09-25T15:08:24.746Z,15.44
2022-09-25T15:11:39.028Z,15.63
2022-09-25T15:14:42.266Z,15.61
2022-09-25T15:17:49.512Z,15.71
2022-09-25T15:20:52.338Z,15.67
2022-09-25T15:23:58.719Z,15.68
2022-09-25T15:27:06.391Z,15.62
2022-09-25T15:30:16.589Z,15.57
2022-09-25T15:33:23.398Z,15.51
2022-09-25T15:36:26.148Z,15.40
2022-09-25T15:39:29.528Z,15.45
2022-09-25T15:42:34.191Z,15.40
2022-09-25T15:45:45.001Z,15.31
2022-09-25T15:48:53.676Z,15.25
2022-09-25T15:52:01.062Z,15.22
2022-09-25T15:55:13.205Z,15.11
2022-09-25T15:58:20.009Z,15.05
2022-09-25T16:01:42.746Z,14.93
2022-09-25T16:04:51.304Z,14.93
2022-09-25T16:07:56.211Z,14.85
2022-09-25T16:11:18.142Z,14.84
2022-09-25T16:14:30.435Z,14.59
2022-09-25T16:17:36.259Z,14.58
2022-09-25T16:20:41.406Z,14.58
2022-09-25T16:23:45.530Z,14.56
2022-09-25T16:26:55.200Z,14.54
2022-09-25T16:30:03.958Z,14.46
2022-09-25T16:33:17.525Z,14.37
2022-09-25T16:36:20.767Z,14.29
2022-09-25T16:39:32.683Z,14.22
2022-09-25T16:42:40.103Z,14.16
2022-09-25T16:45:59.056Z,14.02
2022-09-25T16:49:04.922Z,13.97
2022-09-25T16:52:08.977Z,13.98
2022-09-25T16:55:21.469Z,13.89
2022-09-25T16:58:24.708Z,13.80
2022-09-25T17:01:29.720Z,13.80
2022-09-25T17:04:35.902Z,13.66
2022-09-25T17:07:38.809Z,13.54
2022-09-25T17:10:42.247Z,13.63
2022-09-25T17:13:45.582Z,13.69
2022-09-25T17:16:50.008Z,13.73
2022-09-25T17:19:52.821Z,13.72
2022-09-25T17:22:55.970Z,13.72
2022-09-25T17:26:04.387Z,13.69
2022-09-25T17:29:07.515Z,13.64
2022-09-25T17:32:15.335Z,13.62
2022-09-25T17:35:34.645Z,13.67
2022-09-25T17:38:37.414Z,13.66
2022-09-25T17:41:40.991Z,13.70
2022-09-25T17:44:44.000Z,13.69
2022-09-25T17:47:48.193Z,13.72
2022-09-25T17:50:52.591Z,13.71
2022-09-25T17:53:56.177Z,13.53
2022-09-25T17:56:59.281Z,13.66
2022-09-25T18:00:02.342Z,13.62
2022-09-25T18:03:09.399Z,13.65
2022-09-25T18:06:12.319Z,13.70
2022-09-25T18:09:15.201Z,13.52
2022-09-25T18:12:18.200Z,13.43
2022-09-25T18:15:21.308Z,13.35
2022-09-25T18:18:46.279Z,13.31
2022-09-25T18:22:06.699Z,13.19
2022-09-25T18:25:10.732Z,13.00
2022-09-25T18:28:15.953Z,12.83
2022-09-25T18:31:18.964Z,12.60
2022-09-25T18:34:26.075Z,12.34
2022-09-25T18:37:29.048Z,12.21
2022-09-25T18:40:32.050Z,12.26
2022-09-25T18:43:35.399Z,12.30
2022-09-25T18:46:38.549Z,12.35
2022-09-25T18:49:43.818Z,12.27
2022-09-25T18:52:46.845Z,12.38
2022-09-25T18:55:54.176Z,12.40
2022-09-25T18:58:57.083Z,12.49
2022-09-25T19:02:00.268Z,12.53
2022-09-25T19:05:04.929Z,12.46
2022-09-25T19:08:08.892Z,12.54
2022-09-25T19:11:15.239Z,12.49
2022-09-25T19:14:19.955Z,12.41
2022-09-25T19:17:22.766Z,12.46
2022-09-25T19:20:27.247Z,12.46
2022-09-25T19:23:33.967Z,12.47
2022-09-25T19:26:37.173Z,12.38
2022-09-25T19:29:40.192Z,12.27
2022-09-25T19:32:43.291Z,12.32
2022-09-25T19:35:47.703Z,12.22
2022-09-25T19:38:50.795Z,12.27
2022-09-25T19:41:54.485Z,12.34
2022-09-25T19:44:57.431Z,12.31
2022-09-25T19:48:00.411Z,12.23
2022-09-25T19:51:07.568Z,12.17
2022-09-25T19:54:13.399Z,12.09
2022-09-25T19:57:16.220Z,12.17
2022-09-25T20:00:19.302Z,12.21
2022-09-25T20:03:23.567Z,12.27
2022-09-25T20:06:29.464Z,12.27
2022-09-25T20:09:37.505Z,12.27
2022-09-25T20:12:42.468Z,12.29
2022-09-25T20:15:47.604Z,12.02
2022-09-25T20:18:51.846Z,12.09
2022-09-25T20:21:56.182Z,12.14
2022-09-25T20:24:59.240Z,12.13
2022-09-25T20:28:02.167Z,12.23
2022-09-25T20:31:06.618Z,12.21
2022-09-25T20:34:13.563Z,12.25
2022-09-25T20:37:17.760Z,12.25
2022-09-25T20:40:20.640Z,12.17
2022-09-25T20:43:23.577Z,12.18
2022-09-25T20:46:27.517Z,12.10
2022-09-25T20:49:31.074Z,12.19
2022-09-25T20:52:36.310Z,12.17
2022-09-25T20:55:39.916Z,12.12
2022-09-25T20:58:45.321Z,12.17
2022-09-25T21:01:50.837Z,12.21
2022-09-25T21:04:53.707Z,12.22
2022-09-25T21:07:57.817Z,12.24
2022-09-25T21:11:02.374Z,12.20
2022-09-25T21:14:05.259Z,12.22
2022-09-25T21:17:08.078Z,12.03
2022-09-25T21:20:11.729Z,12.05
2022-09-25T21:23:15.828Z,12.03
2022-09-25T21:26:19.499Z,12.11
2022-09-25T21:29:22.309Z,12.07
2022-09-25T21:32:25.016Z,12.01
2022-09-25T21:35:27.821Z,12.05
2022-09-25T21:38:32.275Z,11.94
2022-09-25T21:41:35.586Z,11.78
2022-09-25T21:44:38.952Z,11.71
2022-09-25T21:47:41.673Z,11.66
2022-09-25T21:50:52.445Z,11.72
2022-09-25T21:53:56.633Z,11.63
2022-09-25T21:56:59.535Z,11.54
2022-09-25T22:00:03.035Z,11.55
2022-09-25T22:03:09.348Z,11.43
2022-09-25T22:06:14.703Z,11.48
2022-09-25T22:09:21.610Z,11.46
2022-09-25T22:12:24.821Z,11.45
2022-09-25T22:15:27.538Z,11.41
2022-09-25T22:18:30.591Z,11.37
2022-09-25T22:21:35.480Z,11.36
2022-09-25T22:24:39.584Z,11.36
2022-09-25T22:27:42.374Z,11.34
2022-09-25T22:30:45.184Z,11.33
2022-09-25T22:33:49.566Z,11.27
2022-09-25T22:36:58.615Z,11.14
2022-09-25T22:40:04.164Z,11.10
2022-09-25T22:43:07.496Z,11.09
2022-09-25T22:46:12.386Z,11.06
2022-09-25T22:49:15.397Z,11.02
2022-09-25T22:52:18.180Z,11.04
2022-09-25T22:55:24.734Z,10.92
2022-09-25T22:58:27.886Z,10.88
2022-09-25T23:01:33.359Z,10.87
2022-09-25T23:04:36.301Z,10.87
2022-09-25T23:07:39.150Z,10.91
2022-09-25T23:11:06.185Z,10.84
2022-09-25T23:14:08.711Z,10.82
2022-09-25T23:17:11.637Z,10.78
2022-09-25T23:20:14.578Z,10.76
2022-09-25T23:23:17.374Z,10.85
2022-09-25T23:26:22.200Z,10.81
2022-09-25T23:29:25.195Z,10.78
2022-09-25T23:32:28.244Z,10.83
2022-09-25T23:35:34.359Z,10.75
2022-09-25T23:38:37.158Z,10.71
2022-09-25T23:41:41.298Z,10.70
2022-09-25T23:44:44.017Z,10.68
2022-09-25T23:47:46.748Z,10.62
2022-09-25T23:50:51.257Z,10.67
2022-09-25T23:53:55.437Z,10.59
2022-09-25T23:56:59.880Z,10.66
